createdAt,value
2019-06-20T00:00:13.153Z,99149.33
2019-06-20T00:02:42.225Z,99158.42
2019-06-20T00:05:11.414Z,99183.92
2019-06-20T00:07:40.552Z,99195.86
2019-06-20T00:10:09.692Z,99192.50
2019-06-20T00:12:38.820Z,99188.70
2019-06-20T00:15:08.291Z,99181.42
2019-06-20T00:17:37.529Z,99182.57
2019-06-20T00:20:06.894Z,99188.87
2019-06-20T00:22:35.993Z,99187.10
2019-06-20T00:25:05.498Z,99178.45
2019-06-20T00:27:34.865Z,99172.52
2019-06-20T00:30:04.368Z,99174.30
2019-06-20T00:32:33.833Z,99172.41
2019-06-20T00:35:03.071Z,99160.06
2019-06-20T00:37:32.279Z,99171.84
2019-06-20T00:40:01.514Z,99171.30
2019-06-20T00:42:30.718Z,99180.69
2019-06-20T00:44:59.814Z,99177.11
2019-06-20T00:47:29.093Z,99178.52
2019-06-20T00:49:58.207Z,99186.66
2019-06-20T00:52:27.358Z,99196.59
2019-06-20T00:54:56.482Z,99201.28
2019-06-20T00:57:25.671Z,99200.25
2019-06-20T00:59:54.799Z,99201.70
2019-06-20T01:02:23.942Z,99200.13
2019-06-20T01:04:53.058Z,99196.34
2019-06-20T01:07:22.224Z,99177.11
2019-06-20T01:09:51.325Z,99186.67
2019-06-20T01:12:20.738Z,99190.79
2019-06-20T01:14:49.835Z,99185.26
2019-06-20T01:17:19.008Z,99185.92
2019-06-20T01:19:48.085Z,99179.17
2019-06-20T01:22:17.334Z,99179.14
2019-06-20T01:24:46.530Z,99170.94
2019-06-20T01:27:15.673Z,99170.05
2019-06-20T01:29:44.785Z,99166.03
2019-06-20T01:32:14.281Z,99163.98
2019-06-20T01:34:43.476Z,99163.35
2019-06-20T01:37:12.761Z,99172.04
2019-06-20T01:39:42.054Z,99177.28
2019-06-20T01:42:12.621Z,99178.10
2019-06-20T01:44:41.757Z,99186.22
2019-06-20T01:47:10.877Z,99187.41
2019-06-20T01:49:40.031Z,99192.20
2019-06-20T01:52:09.144Z,99194.98
2019-06-20T01:54:39.424Z,99192.72
2019-06-20T01:57:08.558Z,99193.73
2019-06-20T01:59:37.703Z,99198.34
2019-06-20T02:02:06.948Z,99202.64
2019-06-20T02:04:36.102Z,99205.66
2019-06-20T02:07:05.387Z,99206.05
2019-06-20T02:09:34.568Z,99204.88
2019-06-20T02:12:03.794Z,99208.44
2019-06-20T02:14:32.894Z,99202.33
2019-06-20T02:17:02.057Z,99202.70
2019-06-20T02:19:31.180Z,99201.93
2019-06-20T02:22:00.295Z,99198.55
2019-06-20T02:24:29.434Z,99204.64
2019-06-20T02:26:58.568Z,99210.06
2019-06-20T02:29:27.992Z,99210.08
2019-06-20T02:31:57.442Z,99212.05
2019-06-20T02:34:26.545Z,99219.42
2019-06-20T02:36:55.751Z,99227.36
2019-06-20T02:39:24.894Z,99225.05
2019-06-20T02:41:53.982Z,99229.18
2019-06-20T02:44:29.933Z,99229.19
2019-06-20T02:46:53.961Z,99229.06
2019-06-20T02:49:23.072Z,99238.58
2019-06-20T02:51:53.735Z,99238.08
2019-06-20T02:54:22.844Z,99245.14
2019-06-20T02:56:51.966Z,99247.77
2019-06-20T02:59:21.409Z,99256.66
2019-06-20T03:01:50.570Z,99259.28
2019-06-20T03:04:19.658Z,99261.56
2019-06-20T03:06:48.895Z,99259.90
2019-06-20T03:09:18.042Z,99253.94
2019-06-20T03:11:47.265Z,99249.33
2019-06-20T03:14:16.344Z,99254.39
2019-06-20T03:16:45.463Z,99256.52
2019-06-20T03:19:14.568Z,99254.73
2019-06-20T03:21:43.725Z,99260.95
2019-06-20T03:24:12.837Z,99265.03
2019-06-20T03:26:41.999Z,99267.65
2019-06-20T03:29:11.078Z,99269.91
2019-06-20T03:31:40.226Z,99274.66
2019-06-20T03:34:09.307Z,99275.70
2019-06-20T03:36:38.411Z,99276.20
2019-06-20T03:39:08.012Z,99269.44
2019-06-20T03:41:37.152Z,99280.02
2019-06-20T03:44:06.390Z,99285.13
2019-06-20T03:46:35.500Z,99282.97
2019-06-20T03:49:04.651Z,99286.09
2019-06-20T03:51:33.904Z,99291.34
2019-06-20T03:54:03.021Z,99295.76
2019-06-20T03:56:32.134Z,99296.08
2019-06-20T03:59:01.287Z,99294.58
2019-06-20T04:01:30.458Z,99293.66
2019-06-20T04:03:59.579Z,99296.45
2019-06-20T04:06:28.700Z,99295.22
2019-06-20T04:08:57.981Z,99293.14
2019-06-20T04:11:27.131Z,99293.89
2019-06-20T04:13:56.261Z,99286.52
2019-06-20T04:16:25.419Z,99286.00
2019-06-20T04:18:54.550Z,99290.33
2019-06-20T04:21:23.678Z,99289.48
2019-06-20T04:23:52.834Z,99291.31
2019-06-20T04:26:21.971Z,99283.11
2019-06-20T04:28:51.058Z,99283.11
2019-06-20T04:31:20.267Z,99286.44
2019-06-20T04:33:49.503Z,99287.41
2019-06-20T04:36:18.614Z,99285.18
2019-06-20T04:38:47.787Z,99285.99
2019-06-20T04:41:16.913Z,99285.19
2019-06-20T04:43:46.524Z,99284.31
2019-06-20T04:46:37.668Z,99281.70
2019-06-20T04:49:06.860Z,99284.24
2019-06-20T04:51:35.988Z,99290.03
2019-06-20T04:54:05.927Z,99289.34
2019-06-20T04:56:35.010Z,99286.47
2019-06-20T04:59:04.261Z,99289.23
2019-06-20T05:01:33.494Z,99292.31
2019-06-20T05:04:02.664Z,99300.47
2019-06-20T05:06:32.125Z,99292.98
2019-06-20T05:09:01.290Z,99301.92
2019-06-20T05:11:30.415Z,99305.38
2019-06-20T05:14:01.039Z,99308.02
2019-06-20T05:16:30.384Z,99305.58
2019-06-20T05:18:59.537Z,99301.63
2019-06-20T05:21:28.663Z,99298.48
2019-06-20T05:23:57.974Z,99297.58
2019-06-20T05:26:27.235Z,99299.03
2019-06-20T05:28:56.378Z,99298.26
2019-06-20T05:31:25.523Z,99302.47
2019-06-20T05:33:54.670Z,99307.30
2019-06-20T05:36:23.825Z,99295.80
2019-06-20T05:38:52.960Z,99296.66
2019-06-20T05:41:22.083Z,99296.25
2019-06-20T05:43:51.229Z,99300.33
2019-06-20T05:46:20.355Z,99299.51
2019-06-20T05:48:49.467Z,99300.78
2019-06-20T05:51:18.594Z,99304.88
2019-06-20T05:53:47.787Z,99310.31
2019-06-20T05:56:16.932Z,99304.64
2019-06-20T05:58:46.068Z,99303.05
2019-06-20T06:01:15.240Z,99297.61
2019-06-20T06:03:44.419Z,99295.98
2019-06-20T06:06:13.538Z,99300.03
2019-06-20T06:08:42.642Z,99301.88
2019-06-20T06:11:11.841Z,99297.39
2019-06-20T06:13:40.962Z,99301.36
2019-06-20T06:16:25.349Z,99299.72
2019-06-20T06:18:40.917Z,99302.56
2019-06-20T06:21:10.103Z,99310.05
2019-06-20T06:23:39.253Z,99308.19
2019-06-20T06:26:08.395Z,99315.65
2019-06-20T06:28:37.585Z,99312.33
2019-06-20T06:31:08.227Z,99309.81
2019-06-20T06:33:37.329Z,99311.38
2019-06-20T06:36:06.460Z,99313.54
2019-06-20T06:38:35.591Z,99316.73
2019-06-20T06:41:04.853Z,99312.73
2019-06-20T06:43:34.014Z,99309.10
2019-06-20T06:46:03.387Z,99316.08
2019-06-20T06:48:32.585Z,99310.50
2019-06-20T06:51:02.073Z,99303.19
2019-06-20T06:53:31.560Z,99309.03
2019-06-20T06:56:00.739Z,99313.34
2019-06-20T06:58:29.870Z,99316.16
2019-06-20T07:00:59.017Z,99309.29
2019-06-20T07:03:28.171Z,99312.86
2019-06-20T07:05:57.295Z,99314.27
2019-06-20T07:08:26.555Z,99312.50
2019-06-20T07:10:55.678Z,99310.81
2019-06-20T07:13:24.867Z,99304.44
2019-06-20T07:15:54.005Z,99312.27
2019-06-20T07:18:23.384Z,99305.88
2019-06-20T07:20:52.498Z,99308.86
2019-06-20T07:23:21.647Z,99309.03
2019-06-20T07:25:50.801Z,99303.08
2019-06-20T07:28:19.977Z,99309.61
2019-06-20T07:30:49.072Z,99305.91
2019-06-20T07:33:18.537Z,99300.95
2019-06-20T07:35:47.638Z,99309.75
2019-06-20T07:38:16.783Z,99300.97
2019-06-20T07:40:46.066Z,99298.52
2019-06-20T07:43:15.194Z,99301.41
2019-06-20T07:46:01.099Z,99304.78
2019-06-20T07:48:15.190Z,99306.50
2019-06-20T07:50:44.346Z,99301.77
2019-06-20T07:53:13.575Z,99302.06
2019-06-20T07:55:42.819Z,99301.17
2019-06-20T07:58:12.064Z,99301.46
2019-06-20T08:00:41.315Z,99303.22
2019-06-20T08:03:10.435Z,99313.50
2019-06-20T08:05:39.592Z,99308.86
2019-06-20T08:08:08.786Z,99304.95
2019-06-20T08:10:37.974Z,99312.23
2019-06-20T08:13:07.321Z,99308.09
2019-06-20T08:15:36.604Z,99314.36
2019-06-20T08:18:07.548Z,99321.62
2019-06-20T08:20:36.946Z,99313.75
2019-06-20T08:23:06.170Z,99324.31
2019-06-20T08:25:36.863Z,99321.56
2019-06-20T08:28:06.598Z,99316.42
2019-06-20T08:30:37.215Z,99318.17
2019-06-20T08:33:11.919Z,99311.91
2019-06-20T08:35:39.318Z,99314.08
2019-06-20T08:38:09.656Z,99307.86
2019-06-20T08:40:40.690Z,99310.80
2019-06-20T08:43:10.094Z,99315.28
2019-06-20T08:45:40.257Z,99311.42
2019-06-20T08:48:09.441Z,99313.83
2019-06-20T08:50:38.800Z,99304.06
2019-06-20T08:53:08.037Z,99301.52
2019-06-20T08:55:37.790Z,99306.13
2019-06-20T08:58:07.070Z,99306.48
2019-06-20T09:00:38.243Z,99307.33
2019-06-20T09:03:07.767Z,99306.34
2019-06-20T09:05:37.307Z,99309.20
2019-06-20T09:08:10.882Z,99307.02
2019-06-20T09:10:39.193Z,99309.57
2019-06-20T09:13:10.677Z,99307.59
2019-06-20T09:15:40.594Z,99311.60
2019-06-20T09:18:09.817Z,99309.41
2019-06-20T09:20:39.426Z,99304.80
2019-06-20T09:23:08.560Z,99308.80
2019-06-20T09:25:37.804Z,99309.13
2019-06-20T09:28:07.489Z,99311.28
2019-06-20T09:30:37.858Z,99315.48
2019-06-20T09:33:07.223Z,99321.84
2019-06-20T09:35:36.401Z,99315.80
2019-06-20T09:38:06.489Z,99318.73
2019-06-20T09:40:35.748Z,99320.55
2019-06-20T09:43:05.306Z,99319.89
2019-06-20T09:45:34.616Z,99319.38
2019-06-20T09:48:03.984Z,99321.02
2019-06-20T09:50:33.214Z,99328.98
2019-06-20T09:53:02.433Z,99333.80
2019-06-20T09:55:31.618Z,99338.16
2019-06-20T09:58:00.745Z,99340.97
2019-06-20T10:00:30.325Z,99334.35
2019-06-20T10:02:59.794Z,99328.55
2019-06-20T10:05:29.287Z,99329.09
2019-06-20T10:07:58.431Z,99334.20
2019-06-20T10:10:31.072Z,99328.27
2019-06-20T10:13:00.445Z,99329.42
2019-06-20T10:15:31.885Z,99328.59
2019-06-20T10:18:01.057Z,99334.98
2019-06-20T10:20:30.259Z,99329.53
2019-06-20T10:22:59.533Z,99322.63
2019-06-20T10:25:28.783Z,99326.66
2019-06-20T10:27:58.060Z,99322.73
2019-06-20T10:30:27.817Z,99317.38
2019-06-20T10:32:57.802Z,99310.19
2019-06-20T10:35:27.630Z,99314.84
2019-06-20T10:37:57.337Z,99309.09
2019-06-20T10:40:28.052Z,99307.92
2019-06-20T10:42:58.877Z,99313.97
2019-06-20T10:45:28.562Z,99311.19
2019-06-20T10:47:57.801Z,99305.45
2019-06-20T10:50:27.306Z,99309.25
2019-06-20T10:52:56.470Z,99314.52
2019-06-20T10:55:25.625Z,99311.59
2019-06-20T10:57:55.946Z,99307.19
2019-06-20T11:00:31.467Z,99315.08
2019-06-20T11:02:57.023Z,99310.01
2019-06-20T11:05:27.650Z,99310.81
2019-06-20T11:07:56.775Z,99319.85
2019-06-20T11:10:27.845Z,99322.61
2019-06-20T11:12:57.157Z,99322.72
2019-06-20T11:15:27.151Z,99323.07
2019-06-20T11:17:57.109Z,99318.37
2019-06-20T11:20:27.106Z,99330.63
2019-06-20T11:22:56.258Z,99321.17
2019-06-20T11:25:25.471Z,99317.16
2019-06-20T11:27:55.794Z,99320.22
2019-06-20T11:30:25.469Z,99323.59
2019-06-20T11:32:54.728Z,99315.31
2019-06-20T11:35:23.897Z,99322.37
2019-06-20T11:37:53.142Z,99324.94
2019-06-20T11:40:22.772Z,99325.16
2019-06-20T11:42:52.170Z,99312.75
2019-06-20T11:45:21.293Z,99316.31
2019-06-20T11:47:50.497Z,99305.12
2019-06-20T11:50:21.334Z,99315.23
2019-06-20T11:52:50.575Z,99308.01
2019-06-20T11:55:19.802Z,99305.73
2019-06-20T11:57:49.004Z,99301.75
2019-06-20T12:00:18.787Z,99309.47
2019-06-20T12:02:48.338Z,99321.44
2019-06-20T12:05:18.064Z,99311.28
2019-06-20T12:07:48.056Z,99306.17
2019-06-20T12:10:18.995Z,99305.27
2019-06-20T12:12:49.153Z,99303.29
2019-06-20T12:15:18.755Z,99301.31
2019-06-20T12:17:49.348Z,99294.52
2019-06-20T12:20:20.514Z,99302.72
2019-06-20T12:22:50.808Z,99294.06
2019-06-20T12:25:20.432Z,99291.77
2019-06-20T12:27:49.833Z,99299.67
2019-06-20T12:30:20.141Z,99308.14
2019-06-20T12:32:49.544Z,99302.83
2019-06-20T12:35:19.171Z,99314.16
2019-06-20T12:37:49.796Z,99307.83
2019-06-20T12:40:19.491Z,99299.02
2019-06-20T12:42:49.285Z,99304.76
2019-06-20T12:45:18.630Z,99305.22
2019-06-20T12:47:47.753Z,99309.38
2019-06-20T12:50:17.245Z,99305.69
2019-06-20T12:52:47.633Z,99310.52
2019-06-20T12:55:16.920Z,99311.31
2019-06-20T12:57:46.448Z,99307.46
2019-06-20T13:00:16.550Z,99298.08
2019-06-20T13:02:45.737Z,99303.27
2019-06-20T13:05:16.771Z,99301.45
2019-06-20T13:07:46.609Z,99299.23
2019-06-20T13:10:16.463Z,99288.00
2019-06-20T13:12:46.393Z,99291.75
2019-06-20T13:15:15.632Z,99283.50
2019-06-20T13:17:45.062Z,99281.53
2019-06-20T13:20:14.819Z,99286.06
2019-06-20T13:22:44.787Z,99276.94
2019-06-20T13:25:14.323Z,99283.29
2019-06-20T13:27:43.604Z,99284.49
2019-06-20T13:30:13.354Z,99293.80
2019-06-20T13:32:43.827Z,99299.11
2019-06-20T13:35:15.037Z,99296.09
2019-06-20T13:37:45.706Z,99287.73
2019-06-20T13:40:15.351Z,99298.72
2019-06-20T13:42:45.933Z,99293.52
2019-06-20T13:45:23.500Z,99293.02
2019-06-20T13:47:53.032Z,99282.38
2019-06-20T13:50:23.443Z,99282.63
2019-06-20T13:52:52.782Z,99271.34
2019-06-20T13:55:21.967Z,99277.29
2019-06-20T13:57:51.178Z,99277.02
2019-06-20T14:00:22.680Z,99262.73
2019-06-20T14:02:51.926Z,99265.05
2019-06-20T14:05:21.127Z,99259.27
2019-06-20T14:07:53.797Z,99261.72
2019-06-20T14:10:21.673Z,99260.30
2019-06-20T14:12:52.241Z,99263.55
2019-06-20T14:15:22.602Z,99266.03
2019-06-20T14:17:51.863Z,99264.41
2019-06-20T14:20:23.019Z,99269.27
2019-06-20T14:22:54.579Z,99272.42
2019-06-20T14:25:23.947Z,99277.86
2019-06-20T14:27:53.899Z,99275.83
2019-06-20T14:30:23.287Z,99272.13
2019-06-20T14:32:54.026Z,99271.21
2019-06-20T14:35:23.274Z,99269.78
2019-06-20T14:37:52.418Z,99267.09
2019-06-20T14:40:21.752Z,99263.45
2019-06-20T14:42:52.218Z,99264.14
2019-06-20T14:45:21.660Z,99266.41
2019-06-20T14:47:52.292Z,99261.44
2019-06-20T14:50:21.931Z,99270.45
2019-06-20T14:52:52.215Z,99275.32
2019-06-20T14:55:21.647Z,99268.30
2019-06-20T14:57:52.316Z,99273.64
2019-06-20T15:00:22.316Z,99271.69
2019-06-20T15:02:54.922Z,99270.59
2019-06-20T15:05:22.477Z,99275.40
2019-06-20T15:07:53.673Z,99287.38
2019-06-20T15:10:22.536Z,99284.94
2019-06-20T15:12:52.302Z,99284.14
2019-06-20T15:15:22.543Z,99273.11
2019-06-20T15:17:54.046Z,99272.06
2019-06-20T15:20:22.583Z,99282.82
2019-06-20T15:22:52.775Z,99277.38
2019-06-20T15:25:22.116Z,99280.77
2019-06-20T15:27:53.209Z,99280.70
2019-06-20T15:30:22.128Z,99282.52
2019-06-20T15:33:04.005Z,99291.25
2019-06-20T15:35:22.416Z,99290.16
2019-06-20T15:37:52.035Z,99292.84
2019-06-20T15:40:22.610Z,99295.98
2019-06-20T15:42:53.518Z,99298.44
2019-06-20T15:45:22.596Z,99299.32
2019-06-20T15:47:51.938Z,99296.11
2019-06-20T15:50:21.084Z,99291.53
2019-06-20T15:52:50.264Z,99289.60
2019-06-20T15:55:20.877Z,99288.67
2019-06-20T15:57:53.778Z,99287.77
2019-06-20T16:00:21.078Z,99284.13
2019-06-20T16:02:50.395Z,99288.42
2019-06-20T16:05:19.688Z,99287.79
2019-06-20T16:07:48.783Z,99291.53
2019-06-20T16:10:17.924Z,99289.05
2019-06-20T16:12:47.061Z,99293.31
2019-06-20T16:15:21.340Z,99291.33
2019-06-20T16:17:50.482Z,99292.49
2019-06-20T16:20:19.917Z,99290.97
2019-06-20T16:22:49.087Z,99291.59
2019-06-20T16:25:18.235Z,99294.72
2019-06-20T16:27:47.374Z,99284.95
2019-06-20T16:30:18.167Z,99284.85
2019-06-20T16:32:47.275Z,99286.64
2019-06-20T16:35:17.727Z,99282.20
2019-06-20T16:37:46.934Z,99277.34
2019-06-20T16:40:16.673Z,99286.16
2019-06-20T16:42:45.855Z,99276.92
2019-06-20T16:45:15.264Z,99267.59
2019-06-20T16:47:44.443Z,99278.38
2019-06-20T16:50:13.718Z,99274.14
2019-06-20T16:52:42.890Z,99273.93
2019-06-20T16:55:12.099Z,99276.95
2019-06-20T16:57:41.339Z,99287.92
2019-06-20T17:00:11.429Z,99275.83
2019-06-20T17:02:40.639Z,99276.22
2019-06-20T17:05:10.416Z,99280.45
2019-06-20T17:07:39.587Z,99286.45
2019-06-20T17:10:08.956Z,99285.94
2019-06-20T17:12:38.097Z,99292.72
2019-06-20T17:15:07.540Z,99299.25
2019-06-20T17:17:36.695Z,99302.64
2019-06-20T17:20:06.923Z,99301.63
2019-06-20T17:22:36.145Z,99304.94
2019-06-20T17:25:05.296Z,99305.39
2019-06-20T17:27:34.454Z,99305.22
2019-06-20T17:30:03.647Z,99311.38
2019-06-20T17:32:32.777Z,99315.84
2019-06-20T17:35:01.901Z,99319.38
2019-06-20T17:37:31.092Z,99322.98
2019-06-20T17:40:00.232Z,99324.07
2019-06-20T17:42:29.400Z,99336.33
2019-06-20T17:44:58.558Z,99332.97
2019-06-20T17:47:27.713Z,99336.55
2019-06-20T17:49:56.932Z,99335.69
2019-06-20T17:52:26.087Z,99336.88
2019-06-20T17:54:55.304Z,99337.67
2019-06-20T17:57:24.473Z,99341.78
2019-06-20T17:59:53.636Z,99345.00
2019-06-20T18:02:22.791Z,99348.28
2019-06-20T18:04:52.000Z,99345.44
2019-06-20T18:07:24.182Z,99346.05
2019-06-20T18:09:53.718Z,99345.31
2019-06-20T18:12:23.126Z,99347.27
2019-06-20T18:14:52.297Z,99344.42
2019-06-20T18:17:21.460Z,99348.67
2019-06-20T18:19:50.612Z,99345.73
2019-06-20T18:22:19.757Z,99347.05
2019-06-20T18:24:48.957Z,99349.30
2019-06-20T18:27:18.114Z,99349.39
2019-06-20T18:29:47.304Z,99344.70
2019-06-20T18:32:16.428Z,99347.95
2019-06-20T18:35:00.776Z,99352.21
2019-06-20T18:37:30.461Z,99358.08
2019-06-20T18:39:47.393Z,99357.26
2019-06-20T18:42:16.578Z,99355.48
2019-06-20T18:44:45.696Z,99354.69
2019-06-20T18:47:14.854Z,99353.39
2019-06-20T18:49:43.986Z,99358.32
2019-06-20T18:52:13.134Z,99367.22
2019-06-20T18:54:42.346Z,99365.89
2019-06-20T18:57:11.533Z,99361.50
2019-06-20T18:59:40.722Z,99361.17
2019-06-20T19:02:09.921Z,99370.77
2019-06-20T19:04:48.053Z,99371.25
2019-06-20T19:07:10.058Z,99374.69
2019-06-20T19:09:39.184Z,99370.11
2019-06-20T19:12:08.462Z,99373.03
2019-06-20T19:14:37.636Z,99380.53
2019-06-20T19:17:06.845Z,99385.42
2019-06-20T19:19:36.049Z,99389.20
2019-06-20T19:22:05.220Z,99396.08
2019-06-20T19:24:34.384Z,99402.47
2019-06-20T19:27:03.644Z,99409.73
2019-06-20T19:29:32.818Z,99413.89
2019-06-20T19:32:01.990Z,99417.05
2019-06-20T19:34:31.150Z,99425.98
2019-06-20T19:37:00.263Z,99427.33
2019-06-20T19:39:29.428Z,99428.63
2019-06-20T19:41:58.588Z,99434.31
2019-06-20T19:44:27.780Z,99436.97
2019-06-20T19:46:56.934Z,99438.66
2019-06-20T19:49:26.057Z,99443.99
2019-06-20T19:51:55.223Z,99443.02
2019-06-20T19:54:24.408Z,99457.02
2019-06-20T19:56:53.554Z,99465.71
2019-06-20T19:59:22.666Z,99462.95
2019-06-20T20:01:51.850Z,99468.04
2019-06-20T20:04:21.169Z,99471.48
2019-06-20T20:06:50.270Z,99480.77
2019-06-20T20:09:19.395Z,99484.52
2019-06-20T20:11:48.557Z,99487.66
2019-06-20T20:14:17.757Z,99489.37
2019-06-20T20:16:46.950Z,99489.80
2019-06-20T20:19:16.120Z,99484.48
2019-06-20T20:21:45.284Z,99489.98
2019-06-20T20:24:14.433Z,99495.39
2019-06-20T20:26:43.573Z,99492.02
2019-06-20T20:29:12.833Z,99496.16
2019-06-20T20:31:41.975Z,99499.19
2019-06-20T20:34:11.950Z,99501.23
2019-06-20T20:36:41.719Z,99507.78
2019-06-20T20:39:11.013Z,99503.42
2019-06-20T20:41:40.165Z,99500.61
2019-06-20T20:44:09.340Z,99508.72
2019-06-20T20:46:38.490Z,99507.77
2019-06-20T20:49:07.613Z,99505.55
2019-06-20T20:51:36.773Z,99502.23
2019-06-20T20:54:06.146Z,99500.30
2019-06-20T20:56:35.273Z,99499.03
2019-06-20T20:59:04.451Z,99507.08
2019-06-20T21:01:35.623Z,99510.05
2019-06-20T21:04:04.646Z,99510.82
2019-06-20T21:06:33.746Z,99513.70
2019-06-20T21:09:02.948Z,99518.39
2019-06-20T21:11:32.173Z,99526.88
2019-06-20T21:14:01.282Z,99534.06
2019-06-20T21:16:30.454Z,99535.09
2019-06-20T21:18:59.635Z,99520.86
2019-06-20T21:21:29.054Z,99547.55
2019-06-20T21:23:58.210Z,99540.31
2019-06-20T21:26:27.384Z,99554.83
2019-06-20T21:28:56.548Z,99560.70
2019-06-20T21:31:25.875Z,99563.12
2019-06-20T21:33:55.117Z,99566.26
2019-06-20T21:36:24.293Z,99568.70
2019-06-20T21:38:53.447Z,99575.88
2019-06-20T21:41:22.639Z,99564.03
2019-06-20T21:43:51.788Z,99572.16
2019-06-20T21:46:20.931Z,99566.63
2019-06-20T21:48:50.197Z,99569.61
2019-06-20T21:51:19.404Z,99564.55
2019-06-20T21:53:48.540Z,99563.23
2019-06-20T21:56:17.658Z,99564.44
2019-06-20T21:58:46.808Z,99557.94
2019-06-20T22:01:17.084Z,99563.74
2019-06-20T22:03:46.235Z,99566.45
2019-06-20T22:06:23.846Z,99563.48
2019-06-20T22:08:46.223Z,99566.92
2019-06-20T22:11:15.366Z,99570.71
2019-06-20T22:13:46.788Z,99572.22
2019-06-20T22:16:15.937Z,99575.02
2019-06-20T22:18:45.111Z,99576.20
2019-06-20T22:21:14.252Z,99587.08
2019-06-20T22:23:43.786Z,99588.08
2019-06-20T22:26:12.921Z,99581.02
2019-06-20T22:28:42.059Z,99598.11
2019-06-20T22:31:11.214Z,99599.91
2019-06-20T22:33:40.434Z,99600.39
2019-06-20T22:36:09.576Z,99597.27
2019-06-20T22:38:38.717Z,99601.38
2019-06-20T22:41:07.836Z,99593.98
2019-06-20T22:43:37.005Z,99595.30
2019-06-20T22:46:06.160Z,99603.39
2019-06-20T22:48:35.293Z,99604.89
2019-06-20T22:51:04.415Z,99602.22
2019-06-20T22:53:33.635Z,99605.81
2019-06-20T22:56:02.779Z,99599.27
2019-06-20T22:58:32.001Z,99605.16
2019-06-20T23:01:01.106Z,99611.10
2019-06-20T23:03:30.290Z,99609.27
2019-06-20T23:05:59.448Z,99611.09
2019-06-20T23:08:28.586Z,99619.29
2019-06-20T23:10:57.746Z,99618.30
2019-06-20T23:13:26.886Z,99623.74
2019-06-20T23:15:56.051Z,99623.06
2019-06-20T23:18:25.152Z,99627.70
2019-06-20T23:21:04.585Z,99629.20
2019-06-20T23:23:25.099Z,99630.67
2019-06-20T23:25:55.883Z,99630.23
2019-06-20T23:28:24.993Z,99633.66
2019-06-20T23:30:54.142Z,99630.20
2019-06-20T23:33:23.271Z,99630.88
2019-06-20T23:35:52.394Z,99634.83
2019-06-20T23:38:21.616Z,99636.63
2019-06-20T23:40:50.716Z,99637.61
2019-06-20T23:43:19.855Z,99636.78
2019-06-20T23:45:48.982Z,99638.09
2019-06-20T23:48:18.142Z,99640.73
2019-06-20T23:50:47.386Z,99643.21
2019-06-20T23:53:23.122Z,99638.59
2019-06-20T23:55:52.817Z,99637.75
2019-06-20T23:58:21.923Z,99637.27
